sensor_id;sensor_type;location;lat;lon;timestamp;pressure;altitude;pressure_sealevel;temperature;humidity
34081;BME280;20358;50.272;19.026;2023-04-04T00:01:47;98935.84;;;-2.67;55.73
34081;BME280;20358;50.272;19.026;2023-04-04T00:04:54;98938.44;;;-2.68;55.92
34081;BME280;20358;50.272;19.026;2023-04-04T00:08:00;98930.75;;;-2.73;55.69
34081;BME280;20358;50.272;19.026;2023-04-04T00:11:10;98924.72;;;-2.73;56.68
34081;BME280;20358;50.272;19.026;2023-04-04T00:14:16;98905.94;;;-2.87;56.74
34081;BME280;20358;50.272;19.026;2023-04-04T00:17:23;98932.63;;;-2.85;56.04
34081;BME280;20358;50.272;19.026;2023-04-04T00:20:28;98928.19;;;-2.74;56.16
34081;BME280;20358;50.272;19.026;2023-04-04T00:23:35;98923.91;;;-2.75;56.81
34081;BME280;20358;50.272;19.026;2023-04-04T00:26:44;98914.38;;;-2.73;55.82
34081;BME280;20358;50.272;19.026;2023-04-04T00:29:51;98917.84;;;-2.74;56.44
34081;BME280;20358;50.272;19.026;2023-04-04T00:32:57;98917.88;;;-2.77;56.37
34081;BME280;20358;50.272;19.026;2023-04-04T00:36:04;98922.13;;;-2.72;55.83
34081;BME280;20358;50.272;19.026;2023-04-04T00:39:10;98914.38;;;-2.73;55.77
34081;BME280;20358;50.272;19.026;2023-04-04T00:42:20;98923.09;;;-2.80;56.34
34081;BME280;20358;50.272;19.026;2023-04-04T00:45:26;98918.00;;;-2.86;56.79
34081;BME280;20358;50.272;19.026;2023-04-04T00:48:34;98918.03;;;-2.89;56.61
34081;BME280;20358;50.272;19.026;2023-04-04T00:51:41;98924.78;;;-2.79;55.86
34081;BME280;20358;50.272;19.026;2023-04-04T00:54:48;98923.16;;;-2.86;56.76
34081;BME280;20358;50.272;19.026;2023-04-04T00:57:59;98930.94;;;-2.89;57.01
34081;BME280;20358;50.272;19.026;2023-04-04T01:01:06;98922.44;;;-2.96;56.48
34081;BME280;20358;50.272;19.026;2023-04-04T01:04:12;98938.94;;;-3.10;57.35
34081;BME280;20358;50.272;19.026;2023-04-04T01:07:20;98938.13;;;-3.16;57.32
34081;BME280;20358;50.272;19.026;2023-04-04T01:10:26;98921.75;;;-3.14;57.05
34081;BME280;20358;50.272;19.026;2023-04-04T01:13:38;98925.22;;;-3.19;56.39
34081;BME280;20358;50.272;19.026;2023-04-04T01:16:48;98916.75;;;-3.30;57.75
34081;BME280;20358;50.272;19.026;2023-04-04T01:20:05;98919.34;;;-3.30;57.80
34081;BME280;20358;50.272;19.026;2023-04-04T01:23:24;98925.38;;;-3.31;57.32
34081;BME280;20358;50.272;19.026;2023-04-04T01:26:43;98915.16;;;-3.43;57.79
34081;BME280;20358;50.272;19.026;2023-04-04T01:29:50;98918.50;;;-3.33;58.02
34081;BME280;20358;50.272;19.026;2023-04-04T01:33:01;98925.34;;;-3.28;57.32
34081;BME280;20358;50.272;19.026;2023-04-04T01:36:31;98918.56;;;-3.38;57.58
34081;BME280;20358;50.272;19.026;2023-04-04T01:39:48;98934.09;;;-3.44;57.00
34081;BME280;20358;50.272;19.026;2023-04-04T01:43:02;98930.75;;;-3.55;57.39
34081;BME280;20358;50.272;19.026;2023-04-04T01:46:09;98931.69;;;-3.60;57.37
34081;BME280;20358;50.272;19.026;2023-04-04T01:49:17;98937.69;;;-3.60;57.71
34081;BME280;20358;50.272;19.026;2023-04-04T01:52:23;98939.44;;;-3.62;57.84
34081;BME280;20358;50.272;19.026;2023-04-04T01:55:30;98932.63;;;-3.69;57.78
34081;BME280;20358;50.272;19.026;2023-04-04T01:58:39;98928.31;;;-3.70;58.32
34081;BME280;20358;50.272;19.026;2023-04-04T02:01:47;98936.00;;;-3.64;57.71
34081;BME280;20358;50.272;19.026;2023-04-04T02:04:53;98937.75;;;-3.66;57.73
34081;BME280;20358;50.272;19.026;2023-04-04T02:08:00;98929.13;;;-3.68;58.19
34081;BME280;20358;50.272;19.026;2023-04-04T02:11:14;98942.13;;;-3.74;58.77
34081;BME280;20358;50.272;19.026;2023-04-04T02:14:28;98940.47;;;-3.86;57.86
34081;BME280;20358;50.272;19.026;2023-04-04T02:17:35;98942.16;;;-3.83;58.63
34081;BME280;20358;50.272;19.026;2023-04-04T02:20:42;98951.59;;;-3.76;58.58
34081;BME280;20358;50.272;19.026;2023-04-04T02:23:48;98947.31;;;-3.78;58.19
34081;BME280;20358;50.272;19.026;2023-04-04T02:26:55;98942.28;;;-3.97;58.13
34081;BME280;20358;50.272;19.026;2023-04-04T02:30:05;98940.50;;;-3.90;59.24
34081;BME280;20358;50.272;19.026;2023-04-04T02:33:13;98939.72;;;-4.01;59.34
34081;BME280;20358;50.272;19.026;2023-04-04T02:36:19;98938.03;;;-4.02;58.83
34081;BME280;20358;50.272;19.026;2023-04-04T02:39:27;98941.47;;;-4.03;58.35
34081;BME280;20358;50.272;19.026;2023-04-04T02:42:34;98938.97;;;-4.15;58.44
34081;BME280;20358;50.272;19.026;2023-04-04T02:45:43;98951.06;;;-4.23;58.69
34081;BME280;20358;50.272;19.026;2023-04-04T02:48:58;98941.66;;;-4.30;58.84
34081;BME280;20358;50.272;19.026;2023-04-04T02:52:06;98942.44;;;-4.21;58.80
34081;BME280;20358;50.272;19.026;2023-04-04T02:55:16;98936.44;;;-4.24;60.03
34081;BME280;20358;50.272;19.026;2023-04-04T02:58:23;98942.41;;;-4.15;59.30
34081;BME280;20358;50.272;19.026;2023-04-04T03:01:32;98941.56;;;-4.15;59.35
34081;BME280;20358;50.272;19.026;2023-04-04T03:04:40;98945.81;;;-4.11;58.65
34081;BME280;20358;50.272;19.026;2023-04-04T03:07:45;98936.38;;;-4.12;59.05
34081;BME280;20358;50.272;19.026;2023-04-04T03:10:52;98926.03;;;-4.09;58.98
34081;BME280;20358;50.272;19.026;2023-04-04T03:13:58;98944.94;;;-4.07;57.94
34081;BME280;20358;50.272;19.026;2023-04-04T03:17:14;98923.47;;;-4.11;59.44
34081;BME280;20358;50.272;19.026;2023-04-04T03:20:21;98938.03;;;-4.05;58.17
34081;BME280;20358;50.272;19.026;2023-04-04T03:23:28;98939.78;;;-4.07;59.03
34081;BME280;20358;50.272;19.026;2023-04-04T03:26:34;98939.84;;;-4.16;58.98
34081;BME280;20358;50.272;19.026;2023-04-04T03:29:41;98931.22;;;-4.12;58.51
34081;BME280;20358;50.272;19.026;2023-04-04T03:32:49;98932.94;;;-4.14;58.86
34081;BME280;20358;50.272;19.026;2023-04-04T03:35:57;98926.09;;;-4.18;59.04
34081;BME280;20358;50.272;19.026;2023-04-04T03:39:04;98938.16;;;-4.20;58.56
34081;BME280;20358;50.272;19.026;2023-04-04T03:42:11;98926.13;;;-4.27;58.99
34081;BME280;20358;50.272;19.026;2023-04-04T03:45:17;98937.38;;;-4.37;58.81
34081;BME280;20358;50.272;19.026;2023-04-04T03:48:27;98945.09;;;-4.34;59.48
34081;BME280;20358;50.272;19.026;2023-04-04T03:51:33;98922.84;;;-4.51;59.94
34081;BME280;20358;50.272;19.026;2023-04-04T03:54:40;98931.38;;;-4.39;59.76
34081;BME280;20358;50.272;19.026;2023-04-04T03:57:46;98934.84;;;-4.44;60.17
34081;BME280;20358;50.272;19.026;2023-04-04T04:00:54;98927.09;;;-4.39;58.80
34081;BME280;20358;50.272;19.026;2023-04-04T04:04:06;98934.88;;;-4.47;59.35
34081;BME280;20358;50.272;19.026;2023-04-04T04:07:15;98932.28;;;-4.48;59.25
34081;BME280;20358;50.272;19.026;2023-04-04T04:10:20;98932.31;;;-4.51;60.51
34081;BME280;20358;50.272;19.026;2023-04-04T04:13:27;98934.81;;;-4.41;60.20
34081;BME280;20358;50.272;19.026;2023-04-04T04:16:38;98922.78;;;-4.40;59.53
34081;BME280;20358;50.272;19.026;2023-04-04T04:19:51;98932.22;;;-4.34;60.07
34081;BME280;20358;50.272;19.026;2023-04-04T04:22:58;98933.13;;;-4.42;59.73
34081;BME280;20358;50.272;19.026;2023-04-04T04:26:05;98922.81;;;-4.42;60.16
34081;BME280;20358;50.272;19.026;2023-04-04T04:29:11;98893.63;;;-4.47;59.35
34081;BME280;20358;50.272;19.026;2023-04-04T04:32:19;98919.34;;;-4.39;59.08
34081;BME280;20358;50.272;19.026;2023-04-04T04:35:30;98910.75;;;-4.36;59.19
34081;BME280;20358;50.272;19.026;2023-04-04T04:38:37;98927.94;;;-4.40;59.60
34081;BME280;20358;50.272;19.026;2023-04-04T04:41:43;98914.16;;;-4.34;60.11
34081;BME280;20358;50.272;19.026;2023-04-04T04:44:50;98909.00;;;-4.31;58.98
34081;BME280;20358;50.272;19.026;2023-04-04T04:47:56;98907.19;;;-4.19;58.48
34081;BME280;20358;50.272;19.026;2023-04-04T04:51:06;98914.00;;;-4.07;59.25
34081;BME280;20358;50.272;19.026;2023-04-04T04:54:18;98922.56;;;-4.02;58.25
34081;BME280;20358;50.272;19.026;2023-04-04T04:57:29;98923.44;;;-4.08;58.32
34081;BME280;20358;50.272;19.026;2023-04-04T05:00:40;98939.81;;;-4.10;58.55
34081;BME280;20358;50.272;19.026;2023-04-04T05:03:46;98932.09;;;-4.19;59.22
34081;BME280;20358;50.272;19.026;2023-04-04T05:07:03;98933.78;;;-4.11;59.24
34081;BME280;20358;50.272;19.026;2023-04-04T05:10:10;98930.31;;;-4.05;58.40
34081;BME280;20358;50.272;19.026;2023-04-04T05:13:17;98933.69;;;-3.99;57.84
34081;BME280;20358;50.272;19.026;2023-04-04T05:16:26;98932.81;;;-3.99;57.41
34081;BME280;20358;50.272;19.026;2023-04-04T05:19:34;98936.28;;;-3.97;58.47
34081;BME280;20358;50.272;19.026;2023-04-04T05:22:45;98950.00;;;-3.95;57.60
34081;BME280;20358;50.272;19.026;2023-04-04T05:25:59;98941.44;;;-4.00;57.44
34081;BME280;20358;50.272;19.026;2023-04-04T05:29:09;98941.31;;;-3.82;56.91
34081;BME280;20358;50.272;19.026;2023-04-04T05:32:19;98940.50;;;-3.89;56.45
34081;BME280;20358;50.272;19.026;2023-04-04T05:35:35;98951.69;;;-3.91;57.05
34081;BME280;20358;50.272;19.026;2023-04-04T05:38:45;98854.88;;;-4.37;57.09
34081;BME280;20358;50.272;19.026;2023-04-04T05:41:54;98944.00;;;-3.97;56.87
34081;BME280;20358;50.272;19.026;2023-04-04T05:45:02;98951.66;;;-3.88;56.59
34081;BME280;20358;50.272;19.026;2023-04-04T05:48:13;98946.59;;;-3.97;56.32
34081;BME280;20358;50.272;19.026;2023-04-04T05:51:23;98952.47;;;-3.77;55.77
34081;BME280;20358;50.272;19.026;2023-04-04T05:54:46;98946.38;;;-3.70;56.35
34081;BME280;20358;50.272;19.026;2023-04-04T05:58:00;98966.16;;;-3.69;56.13
34081;BME280;20358;50.272;19.026;2023-04-04T06:01:19;98946.25;;;-3.55;55.31
34081;BME280;20358;50.272;19.026;2023-04-04T06:04:27;98951.34;;;-3.49;55.75
34081;BME280;20358;50.272;19.026;2023-04-04T06:07:36;98953.13;;;-3.54;55.59
34081;BME280;20358;50.272;19.026;2023-04-04T06:10:45;98966.97;;;-3.61;55.25
34081;BME280;20358;50.272;19.026;2023-04-04T06:13:52;98941.06;;;-3.55;55.36
34081;BME280;20358;50.272;19.026;2023-04-04T06:16:59;98959.91;;;-3.44;55.54
34081;BME280;20358;50.272;19.026;2023-04-04T06:20:07;98941.03;;;-3.49;54.99
34081;BME280;20358;50.272;19.026;2023-04-04T06:23:14;98963.25;;;-3.30;55.54
34081;BME280;20358;50.272;19.026;2023-04-04T06:26:27;98948.72;;;-3.41;54.78
34081;BME280;20358;50.272;19.026;2023-04-04T06:29:35;98947.00;;;-3.41;54.71
34081;BME280;20358;50.272;19.026;2023-04-04T06:32:43;98957.22;;;-3.30;54.26
34081;BME280;20358;50.272;19.026;2023-04-04T06:35:53;98944.41;;;-3.41;53.51
34081;BME280;20358;50.272;19.026;2023-04-04T06:39:00;98945.44;;;-3.61;53.88
34081;BME280;20358;50.272;19.026;2023-04-04T06:42:09;98949.69;;;-3.53;53.93
34081;BME280;20358;50.272;19.026;2023-04-04T06:45:22;98941.91;;;-3.48;53.58
34081;BME280;20358;50.272;19.026;2023-04-04T06:48:30;98920.34;;;-3.43;53.14
34081;BME280;20358;50.272;19.026;2023-04-04T06:51:36;98935.66;;;-3.28;51.38
34081;BME280;20358;50.272;19.026;2023-04-04T06:54:46;98936.44;;;-3.17;52.06
34081;BME280;20358;50.272;19.026;2023-04-04T06:57:56;98953.66;;;-3.19;52.03
34081;BME280;20358;50.272;19.026;2023-04-04T07:01:02;98938.16;;;-3.17;51.15
34081;BME280;20358;50.272;19.026;2023-04-04T07:04:09;98939.84;;;-3.14;51.57
34081;BME280;20358;50.272;19.026;2023-04-04T07:07:15;98920.19;;;-3.28;51.30
34081;BME280;20358;50.272;19.026;2023-04-04T07:10:23;98932.06;;;-3.11;51.03
34081;BME280;20358;50.272;19.026;2023-04-04T07:13:32;98947.25;;;-2.84;51.47
34081;BME280;20358;50.272;19.026;2023-04-04T07:16:38;98932.44;;;-2.72;51.06
34081;BME280;20358;50.272;19.026;2023-04-04T07:19:44;98931.63;;;-2.72;49.07
34081;BME280;20358;50.272;19.026;2023-04-04T07:22:51;98939.28;;;-2.65;49.00
34081;BME280;20358;50.272;19.026;2023-04-04T07:25:57;98960.88;;;-2.72;48.32
34081;BME280;20358;50.272;19.026;2023-04-04T07:29:06;98960.91;;;-2.73;47.99
34081;BME280;20358;50.272;19.026;2023-04-04T07:32:12;98942.00;;;-2.75;48.36
34081;BME280;20358;50.272;19.026;2023-04-04T07:35:19;98958.34;;;-2.73;48.72
34081;BME280;20358;50.272;19.026;2023-04-04T07:38:25;98945.44;;;-2.76;49.45
34081;BME280;20358;50.272;19.026;2023-04-04T07:41:32;98938.53;;;-2.77;49.58
34081;BME280;20358;50.272;19.026;2023-04-04T07:44:40;98948.75;;;-2.65;49.49
34081;BME280;20358;50.272;19.026;2023-04-04T07:47:47;98936.69;;;-2.66;49.70
34081;BME280;20358;50.272;19.026;2023-04-04T07:50:53;98936.63;;;-2.60;49.04
34081;BME280;20358;50.272;19.026;2023-04-04T07:54:02;98941.81;;;-2.60;49.08
34081;BME280;20358;50.272;19.026;2023-04-04T07:57:08;98936.63;;;-2.60;49.38
34081;BME280;20358;50.272;19.026;2023-04-04T08:00:19;98913.38;;;-2.62;49.50
34081;BME280;20358;50.272;19.026;2023-04-04T08:03:29;98952.16;;;-2.60;49.26
34081;BME280;20358;50.272;19.026;2023-04-04T08:06:36;98939.94;;;-2.49;49.09
34081;BME280;20358;50.272;19.026;2023-04-04T08:09:41;98919.28;;;-2.52;48.55
34081;BME280;20358;50.272;19.026;2023-04-04T08:12:50;98919.94;;;-2.38;48.48
34081;BME280;20358;50.272;19.026;2023-04-04T08:15:58;98911.97;;;-2.23;48.25
34081;BME280;20358;50.272;19.026;2023-04-04T08:19:08;98910.19;;;-2.18;48.45
34081;BME280;20358;50.272;19.026;2023-04-04T08:22:15;98929.19;;;-2.19;48.01
34081;BME280;20358;50.272;19.026;2023-04-04T08:25:22;98925.53;;;-2.07;48.41
34081;BME280;20358;50.272;19.026;2023-04-04T08:28:28;98921.78;;;-1.86;47.30
34081;BME280;20358;50.272;19.026;2023-04-04T08:31:38;98928.72;;;-1.88;46.66
34081;BME280;20358;50.272;19.026;2023-04-04T08:34:44;98919.78;;;-1.69;46.65
34081;BME280;20358;50.272;19.026;2023-04-04T08:37:51;98924.66;;;-1.51;45.76
34081;BME280;20358;50.272;19.026;2023-04-04T08:40:57;98939.44;;;-1.58;45.06
34081;BME280;20358;50.272;19.026;2023-04-04T08:44:04;98913.63;;;-1.62;44.36
34081;BME280;20358;50.272;19.026;2023-04-04T08:47:19;98929.94;;;-1.56;43.81
34081;BME280;20358;50.272;19.026;2023-04-04T08:50:29;98911.63;;;-1.45;43.41
34081;BME280;20358;50.272;19.026;2023-04-04T08:53:36;98925.31;;;-1.39;43.52
34081;BME280;20358;50.272;19.026;2023-04-04T08:56:44;98900.75;;;-1.18;43.99
34081;BME280;20358;50.272;19.026;2023-04-04T08:59:53;98911.88;;;-1.13;42.62
34081;BME280;20358;50.272;19.026;2023-04-04T09:03:09;98896.31;;;-1.13;43.10
34081;BME280;20358;50.272;19.026;2023-04-04T09:06:23;98904.50;;;-0.90;42.85
34081;BME280;20358;50.272;19.026;2023-04-04T09:09:32;98921.75;;;-0.87;42.10
34081;BME280;20358;50.272;19.026;2023-04-04T09:12:43;98904.44;;;-0.87;41.37
34081;BME280;20358;50.272;19.026;2023-04-04T09:15:54;98883.53;;;-0.78;41.18
34081;BME280;20358;50.272;19.026;2023-04-04T09:19:05;98879.53;;;-0.52;41.89
34081;BME280;20358;50.272;19.026;2023-04-04T09:22:15;98892.25;;;-0.40;40.64
34081;BME280;20358;50.272;19.026;2023-04-04T09:25:22;98907.00;;;-0.42;41.12
34081;BME280;20358;50.272;19.026;2023-04-04T09:28:29;98885.44;;;-0.46;41.20
34081;BME280;20358;50.272;19.026;2023-04-04T09:31:36;98891.03;;;-0.24;41.19
34081;BME280;20358;50.272;19.026;2023-04-04T09:34:46;98890.69;;;-0.09;42.65
34081;BME280;20358;50.272;19.026;2023-04-04T09:37:52;98887.78;;;0.03;42.28
34081;BME280;20358;50.272;19.026;2023-04-04T09:40:59;98894.94;;;-0.05;41.57
34081;BME280;20358;50.272;19.026;2023-04-04T09:44:06;98898.13;;;0.06;41.85
34081;BME280;20358;50.272;19.026;2023-04-04T09:47:23;98891.91;;;0.13;41.84
34081;BME280;20358;50.272;19.026;2023-04-04T09:50:36;98897.75;;;0.21;40.97
34081;BME280;20358;50.272;19.026;2023-04-04T09:53:50;98888.09;;;0.26;40.53
34081;BME280;20358;50.272;19.026;2023-04-04T09:56:56;98910.72;;;0.21;40.22
34081;BME280;20358;50.272;19.026;2023-04-04T10:00:05;98893.28;;;0.26;40.15
34081;BME280;20358;50.272;19.026;2023-04-04T10:03:15;98872.44;;;0.29;39.63
34081;BME280;20358;50.272;19.026;2023-04-04T10:06:26;98847.72;;;0.48;39.39
34081;BME280;20358;50.272;19.026;2023-04-04T10:09:36;98884.41;;;1.01;39.16
34081;BME280;20358;50.272;19.026;2023-04-04T10:12:45;98913.44;;;0.86;38.74
34081;BME280;20358;50.272;19.026;2023-04-04T10:15:53;98895.25;;;0.86;39.94
34081;BME280;20358;50.272;19.026;2023-04-04T10:19:00;98883.69;;;0.96;39.42
34081;BME280;20358;50.272;19.026;2023-04-04T10:22:13;98885.59;;;0.89;39.14
34081;BME280;20358;50.272;19.026;2023-04-04T10:25:22;98885.94;;;0.77;39.58
34081;BME280;20358;50.272;19.026;2023-04-04T10:28:28;98888.25;;;0.88;39.44
34081;BME280;20358;50.272;19.026;2023-04-04T10:31:37;98884.84;;;0.86;40.31
34081;BME280;20358;50.272;19.026;2023-04-04T10:34:54;98892.00;;;0.78;39.42
34081;BME280;20358;50.272;19.026;2023-04-04T10:38:09;98882.69;;;0.69;39.28
34081;BME280;20358;50.272;19.026;2023-04-04T10:41:18;98866.38;;;0.63;39.01
34081;BME280;20358;50.272;19.026;2023-04-04T10:44:29;98869.72;;;0.68;38.49
34081;BME280;20358;50.272;19.026;2023-04-04T10:47:38;98873.66;;;0.82;38.63
34081;BME280;20358;50.272;19.026;2023-04-04T10:50:46;98880.75;;;1.08;37.96
34081;BME280;20358;50.272;19.026;2023-04-04T10:53:58;98888.06;;;0.94;39.43
34081;BME280;20358;50.272;19.026;2023-04-04T10:57:05;98882.09;;;0.90;39.25
34081;BME280;20358;50.272;19.026;2023-04-04T11:00:13;98877.19;;;0.80;39.26
34081;BME280;20358;50.272;19.026;2023-04-04T11:03:22;98888.25;;;0.88;40.26
34081;BME280;20358;50.272;19.026;2023-04-04T11:07:14;98880.91;;;1.02;39.04
34081;BME280;20358;50.272;19.026;2023-04-04T11:10:27;98866.75;;;1.12;38.39
34081;BME280;20358;50.272;19.026;2023-04-04T11:13:35;98884.94;;;1.12;38.58
34081;BME280;20358;50.272;19.026;2023-04-04T11:16:45;98873.50;;;1.19;37.99
34081;BME280;20358;50.272;19.026;2023-04-04T11:19:57;98884.69;;;1.21;38.10
34081;BME280;20358;50.272;19.026;2023-04-04T11:23:08;98869.31;;;1.13;38.40
34081;BME280;20358;50.272;19.026;2023-04-04T11:26:34;98894.22;;;1.22;39.23
34081;BME280;20358;50.272;19.026;2023-04-04T11:29:51;98737.19;;;0.35;38.30
34081;BME280;20358;50.272;19.026;2023-04-04T11:32:57;98877.16;;;1.12;38.83
34081;BME280;20358;50.272;19.026;2023-04-04T11:36:22;98862.31;;;0.85;37.60
34081;BME280;20358;50.272;19.026;2023-04-04T11:39:49;98844.03;;;0.88;38.68
34081;BME280;20358;50.272;19.026;2023-04-04T11:43:06;98832.81;;;1.16;38.97
34081;BME280;20358;50.272;19.026;2023-04-04T11:46:16;98849.84;;;1.27;39.44
34081;BME280;20358;50.272;19.026;2023-04-04T11:49:26;98861.44;;;1.15;39.23
34081;BME280;20358;50.272;19.026;2023-04-04T11:52:36;98853.53;;;1.19;39.92
34081;BME280;20358;50.272;19.026;2023-04-04T11:55:47;98844.88;;;1.19;38.69
34081;BME280;20358;50.272;19.026;2023-04-04T11:58:57;98850.88;;;1.21;39.94
34081;BME280;20358;50.272;19.026;2023-04-04T12:02:18;98859.44;;;0.95;39.43
34081;BME280;20358;50.272;19.026;2023-04-04T12:05:26;98866.22;;;0.69;40.39
34081;BME280;20358;50.272;19.026;2023-04-04T12:08:33;98866.56;;;0.56;40.33
34081;BME280;20358;50.272;19.026;2023-04-04T12:11:39;98847.63;;;0.51;40.38
34081;BME280;20358;50.272;19.026;2023-04-04T12:14:51;98871.78;;;0.55;41.01
34081;BME280;20358;50.272;19.026;2023-04-04T12:18:20;98865.75;;;0.54;41.02
34081;BME280;20358;50.272;19.026;2023-04-04T12:21:30;98857.84;;;0.57;40.99
34081;BME280;20358;50.272;19.026;2023-04-04T12:24:37;98846.41;;;0.65;40.33
34081;BME280;20358;50.272;19.026;2023-04-04T12:27:44;98847.75;;;0.79;40.66
34081;BME280;20358;50.272;19.026;2023-04-04T12:30:54;98871.34;;;0.72;40.22
34081;BME280;20358;50.272;19.026;2023-04-04T12:34:13;98854.38;;;0.58;40.21
34081;BME280;20358;50.272;19.026;2023-04-04T12:37:21;98873.53;;;0.54;39.33
34081;BME280;20358;50.272;19.026;2023-04-04T12:40:33;98849.09;;;0.62;39.82
34081;BME280;20358;50.272;19.026;2023-04-04T12:43:41;98857.84;;;0.57;39.38
34081;BME280;20358;50.272;19.026;2023-04-04T12:46:50;98877.59;;;0.65;39.55
34081;BME280;20358;50.272;19.026;2023-04-04T12:49:56;98855.59;;;0.78;38.92
34081;BME280;20358;50.272;19.026;2023-04-04T12:53:04;98844.34;;;0.76;39.26
34081;BME280;20358;50.272;19.026;2023-04-04T12:56:30;98862.06;;;0.94;39.42
34081;BME280;20358;50.272;19.026;2023-04-04T12:59:37;98863.13;;;0.87;40.04
34081;BME280;20358;50.272;19.026;2023-04-04T13:02:48;98858.31;;;1.04;40.06
34081;BME280;20358;50.272;19.026;2023-04-04T13:05:57;98859.94;;;1.08;39.00
34081;BME280;20358;50.272;19.026;2023-04-04T13:09:04;98883.03;;;0.88;39.12
34081;BME280;20358;50.272;19.026;2023-04-04T13:12:10;98870.56;;;0.99;39.88
34081;BME280;20358;50.272;19.026;2023-04-04T13:15:16;98871.34;;;0.72;39.52
34081;BME280;20358;50.272;19.026;2023-04-04T13:18:32;98855.34;;;0.54;40.04
34081;BME280;20358;50.272;19.026;2023-04-04T13:21:43;98847.38;;;0.28;40.12
34081;BME280;20358;50.272;19.026;2023-04-04T13:24:49;98883.00;;;0.23;40.33
34081;BME280;20358;50.272;19.026;2023-04-04T13:27:55;98874.34;;;0.23;40.44
34081;BME280;20358;50.272;19.026;2023-04-04T13:31:02;98870.44;;;0.40;39.73
34081;BME280;20358;50.272;19.026;2023-04-04T13:34:12;98878.09;;;0.45;38.93
34081;BME280;20358;50.272;19.026;2023-04-04T13:37:18;98870.50;;;0.37;39.38
34081;BME280;20358;50.272;19.026;2023-04-04T13:40:26;98891.47;;;0.64;38.76
34081;BME280;20358;50.272;19.026;2023-04-04T13:43:32;98873.13;;;0.70;38.36
34081;BME280;20358;50.272;19.026;2023-04-04T13:46:39;98874.09;;;0.66;37.90
34081;BME280;20358;50.272;19.026;2023-04-04T13:49:50;98865.28;;;0.71;38.36
34081;BME280;20358;50.272;19.026;2023-04-04T13:52:55;98869.41;;;0.80;37.67
34081;BME280;20358;50.272;19.026;2023-04-04T13:56:02;98876.53;;;0.72;38.24
34081;BME280;20358;50.272;19.026;2023-04-04T13:59:11;98851.84;;;0.55;38.22
34081;BME280;20358;50.272;19.026;2023-04-04T14:02:18;98875.63;;;0.40;39.36
34081;BME280;20358;50.272;19.026;2023-04-04T14:05:27;98875.03;;;0.29;39.51
34081;BME280;20358;50.272;19.026;2023-04-04T14:08:34;98869.41;;;0.12;39.48
34081;BME280;20358;50.272;19.026;2023-04-04T14:11:40;98872.69;;;0.20;38.81
34081;BME280;20358;50.272;19.026;2023-04-04T14:14:46;98870.69;;;0.31;38.37
34081;BME280;20358;50.272;19.026;2023-04-04T14:17:53;98851.66;;;0.29;38.71
34081;BME280;20358;50.272;19.026;2023-04-04T14:21:02;98867.09;;;0.35;38.56
34081;BME280;20358;50.272;19.026;2023-04-04T14:24:09;98882.16;;;0.21;38.57
34081;BME280;20358;50.272;19.026;2023-04-04T14:27:16;98852.84;;;0.16;38.48
34081;BME280;20358;50.272;19.026;2023-04-04T14:30:22;98867.88;;;0.05;38.30
34081;BME280;20358;50.272;19.026;2023-04-04T14:33:29;98868.66;;;0.07;39.21
34081;BME280;20358;50.272;19.026;2023-04-04T14:36:37;98856.63;;;0.03;39.17
34081;BME280;20358;50.272;19.026;2023-04-04T14:39:44;98848.41;;;-0.14;39.12
34081;BME280;20358;50.272;19.026;2023-04-04T14:42:51;98847.53;;;-0.13;39.38
34081;BME280;20358;50.272;19.026;2023-04-04T14:45:57;98868.19;;;-0.10;40.49
34081;BME280;20358;50.272;19.026;2023-04-04T14:49:03;98856.88;;;-0.08;40.24
34081;BME280;20358;50.272;19.026;2023-04-04T14:52:13;98842.97;;;-0.03;40.13
34081;BME280;20358;50.272;19.026;2023-04-04T14:55:19;98847.38;;;-0.07;40.55
34081;BME280;20358;50.272;19.026;2023-04-04T14:58:26;98857.38;;;0.08;40.27
34081;BME280;20358;50.272;19.026;2023-04-04T15:01:31;98858.16;;;0.13;38.93
34081;BME280;20358;50.272;19.026;2023-04-04T15:04:38;98847.78;;;0.12;39.15
34081;BME280;20358;50.272;19.026;2023-04-04T15:07:48;98848.03;;;0.01;39.40
34081;BME280;20358;50.272;19.026;2023-04-04T15:10:55;98862.09;;;-0.08;38.69
34081;BME280;20358;50.272;19.026;2023-04-04T15:14:00;98863.25;;;-0.19;39.15
34081;BME280;20358;50.272;19.026;2023-04-04T15:17:07;98846.03;;;-0.23;39.38
34081;BME280;20358;50.272;19.026;2023-04-04T15:20:14;98860.38;;;-0.45;39.83
34081;BME280;20358;50.272;19.026;2023-04-04T15:23:23;98837.78;;;-0.40;40.09
34081;BME280;20358;50.272;19.026;2023-04-04T15:26:29;98832.97;;;-0.58;40.03
34081;BME280;20358;50.272;19.026;2023-04-04T15:29:35;98852.91;;;-0.60;39.99
34081;BME280;20358;50.272;19.026;2023-04-04T15:32:41;98840.00;;;-0.63;40.62
34081;BME280;20358;50.272;19.026;2023-04-04T15:35:48;98836.97;;;-0.84;40.05
34081;BME280;20358;50.272;19.026;2023-04-04T15:38:56;98829.47;;;-0.96;40.17
34081;BME280;20358;50.272;19.026;2023-04-04T15:42:03;98845.84;;;-0.94;40.07
34081;BME280;20358;50.272;19.026;2023-04-04T15:45:11;98838.88;;;-0.92;39.80
34081;BME280;20358;50.272;19.026;2023-04-04T15:48:21;98859.63;;;-0.92;39.93
34081;BME280;20358;50.272;19.026;2023-04-04T15:51:27;98841.25;;;-0.83;40.14
34081;BME280;20358;50.272;19.026;2023-04-04T15:54:38;98839.44;;;-0.78;40.65
34081;BME280;20358;50.272;19.026;2023-04-04T15:57:44;98849.44;;;-0.59;40.33
34081;BME280;20358;50.272;19.026;2023-04-04T16:00:51;98853.78;;;-0.61;40.31
34081;BME280;20358;50.272;19.026;2023-04-04T16:03:57;98854.31;;;-0.86;39.97
34081;BME280;20358;50.272;19.026;2023-04-04T16:07:04;98858.59;;;-0.85;40.23
34081;BME280;20358;50.272;19.026;2023-04-04T16:10:13;98848.50;;;-0.98;39.65
34081;BME280;20358;50.272;19.026;2023-04-04T16:13:20;98849.50;;;-1.04;39.79
34081;BME280;20358;50.272;19.026;2023-04-04T16:16:25;98861.69;;;-1.09;39.38
34081;BME280;20358;50.272;19.026;2023-04-04T16:19:32;98854.03;;;-1.15;40.16
34081;BME280;20358;50.272;19.026;2023-04-04T16:22:38;98860.91;;;-1.12;40.29
34081;BME280;20358;50.272;19.026;2023-04-04T16:25:47;98850.63;;;-1.17;40.41
34081;BME280;20358;50.272;19.026;2023-04-04T16:28:53;98844.59;;;-1.19;40.63
34081;BME280;20358;50.272;19.026;2023-04-04T16:32:00;98848.69;;;-1.07;40.39